General Aviation Weather

Text Reports

Enter one or more of the following location identifiers separated by a space:

Zip Code, Four-Character ICAO or Three-Character IATA airport codes.

METAR - Aviation Routine Weather Report
LTBO - Usak,
Updated at 1:50 PM GMT on June 03, 2015 (4:50 PM EEST):
METAR LTBO 031350Z 13004KT 090V180 9999 FEW027CB BKN035 BKN090 20/10 Q1016
TAF - Terminal Area Forecast
LTBO - Usak,
Updated at 1:50 PM GMT on June 03, 2015 (4:50 PM EEST):
TAF LTBO 031340Z 0315/0324 07012KT 9999 SCT035 BKN100
     TEMPO 0315/0318 -TSRA FEW020CB BKN030
     BECMG 0318/0320 VRB02KT
     PROB30 TEMPO 0318/0321 -TSRA FEW020CB BKN030=
Decoded:
ID: LTBO   Usak, TU
REPORT TIME:  2 23: 0
INITIAL WX
   WEATHER: NIL
   COMMENTS: = 

CORRECTION
INITIAL WX
   WEATHER: LTBZ
   COMMENTS: 022240Z 0300/0309 VRB02KT 9999 -SHRA SCT035 BKN100= 

PIREP - Pilot Weather Report
LTBO - Usak,
Updated at 1:50 PM GMT on June 03, 2015 (4:50 PM EEST):
No PIREP is currently available for this location.
AIRMET - Airmens Meteorological Information
LTBO - Usak,
Updated at 1:50 PM GMT on June 03, 2015 (4:50 PM EEST):
No AIRMET is currently available for this location.
SIGMET - Significant Meteorological Information
LTBO - Usak,
Updated at 1:50 PM GMT on June 03, 2015 (4:50 PM EEST):
No SIGMET is currently available for this location.
NOTAM - Notice to Airmen
LTBO - Usak,
Updated at 1:50 PM GMT on June 03, 2015 (4:50 PM EEST):
No NOTAM is currently available for this location.
Forecast Area
LTBO - Usak,
Updated at 1:50 PM GMT on June 03, 2015 (4:50 PM EEST):
No NOTAM is currently available for this location.
Aviation Weather Maps